Time;durP1;ratioP1;P1;durP2;ratioP2;P2;SDS_P1;SDS_P2;PMS_P1;PMS_P2;Temp;Humidity;BMP_temperature;BMP_pressure;BME280_temperature;BME280_humidity;BME280_pressure;Samples;Min_cycle;Max_cycle;Signal;HPM_P1;HPM_P2
2020/12/03 00:00:54;;;;;;;41.20;21.50;;;;;;;-1.09;85.88;97745.19;1837536;78;20933;-71
2020/12/03 00:03:39;;;;;;;40.27;24.00;;;;;;;-1.09;86.08;97749.84;1815879;79;20914;-71
2020/12/03 00:06:28;;;;;;;33.27;20.17;;;;;;;-1.07;86.00;97748.11;1823355;77;21127;-71
2020/12/03 00:09:05;;;;;;;35.90;21.23;;;;;;;-1.10;86.10;97752.45;1816059;79;21000;-71
2020/12/03 00:11:35;;;;;;;44.90;26.95;;;;;;;-1.12;86.23;97750.39;1837715;78;21624;-71
2020/12/03 00:14:02;;;;;;;37.10;20.80;;;;;;;-1.11;86.45;97754.61;1837706;78;20890;-71
2020/12/03 00:16:31;;;;;;;46.10;26.97;;;;;;;-1.13;86.41;97750.84;1837704;78;21428;-71
2020/12/03 00:18:58;;;;;;;35.78;20.05;;;;;;;-1.16;86.56;97756.02;1818078;78;20969;-71
2020/12/03 00:21:45;;;;;;;33.83;18.73;;;;;;;-1.16;86.76;97761.12;1837754;78;20917;-71
2020/12/03 00:24:16;;;;;;;41.18;24.20;;;;;;;-1.16;86.83;97759.84;1819111;79;21126;-71
2020/12/03 00:26:43;;;;;;;41.40;20.17;;;;;;;-1.15;86.81;97771.75;1837710;78;21039;-71
2020/12/03 00:29:10;;;;;;;37.77;19.33;;;;;;;-1.13;86.99;97777.64;1819186;79;20934;-71
2020/12/03 00:31:38;;;;;;;33.75;18.40;;;;;;;-1.09;86.81;97772.82;1837648;78;20989;-71
2020/12/03 00:34:07;;;;;;;41.37;23.73;;;;;;;-1.06;86.75;97772.75;1837806;78;20989;-71
2020/12/03 00:36:35;;;;;;;37.03;23.00;;;;;;;-1.02;86.65;97766.66;1819080;79;21848;-71
2020/12/03 00:39:05;;;;;;;31.63;20.00;;;;;;;-1.01;86.18;97767.05;1837617;78;21055;-70
2020/12/03 00:41:32;;;;;;;34.80;20.68;;;;;;;-1.02;85.92;97767.09;1819076;79;20926;-70
2020/12/03 00:43:59;;;;;;;35.90;21.47;;;;;;;-1.02;85.56;97773.04;1837715;78;20929;-70
2020/12/03 00:46:29;;;;;;;37.30;21.80;;;;;;;-1.02;85.36;97760.72;1837691;78;20981;-70
2020/12/03 00:48:58;;;;;;;38.05;24.02;;;;;;;-1.01;85.16;97763.66;1819066;79;21336;-70
2020/12/03 00:51:25;;;;;;;38.60;23.83;;;;;;;-1.01;85.15;97767.05;1834429;78;20950;-69
2020/12/03 00:53:53;;;;;;;33.60;21.35;;;;;;;-1.03;85.20;97762.44;1791624;79;20926;-70
2020/12/03 00:56:21;;;;;;;29.47;16.10;;;;;;;-1.04;85.17;97761.21;1837725;78;20940;-70
2020/12/03 00:58:49;;;;;;;32.85;19.30;;;;;;;-1.07;84.98;97767.25;1837785;78;21028;-70
2020/12/03 01:01:16;;;;;;;28.55;16.50;;;;;;;-1.12;85.06;97758.88;1819070;79;21380;-70
2020/12/03 01:03:43;;;;;;;28.87;17.15;;;;;;;-1.17;84.96;97775.59;1837737;78;20913;-70
2020/12/03 01:06:10;;;;;;;28.60;17.57;;;;;;;-1.23;85.15;97770.70;1819086;79;20906;-70
2020/12/03 01:08:38;;;;;;;28.03;15.80;;;;;;;-1.24;85.17;97764.34;1837647;78;20984;-70
2020/12/03 01:11:05;;;;;;;30.63;17.17;;;;;;;-1.25;85.23;97760.11;1819063;79;20962;-70
2020/12/03 01:13:32;;;;;;;31.23;17.98;;;;;;;-1.25;85.35;97761.39;1837626;78;21430;-71
2020/12/03 01:16:00;;;;;;;30.27;17.20;;;;;;;-1.24;85.50;97753.72;1837550;78;21351;-70
2020/12/03 01:18:27;;;;;;;35.20;21.25;;;;;;;-1.26;85.39;97762.27;1835141;78;20981;-70
2020/12/03 01:20:54;;;;;;;36.93;22.13;;;;;;;-1.31;85.52;97767.97;1812780;78;20978;-70
2020/12/03 01:23:21;;;;;;;37.07;22.43;;;;;;;-1.35;85.63;97749.79;1828949;78;20938;-70
2020/12/03 01:25:49;;;;;;;35.00;21.23;;;;;;;-1.36;85.69;97754.06;1812756;79;20875;-70
2020/12/03 01:28:16;;;;;;;35.30;21.17;;;;;;;-1.33;85.81;97751.84;1828846;78;20973;-70
2020/12/03 01:30:43;;;;;;;29.67;15.70;;;;;;;-1.31;85.71;97745.84;1812749;79;21317;-70
2020/12/03 01:33:10;;;;;;;28.57;16.77;;;;;;;-1.29;85.32;97741.52;1828808;78;21312;-70
2020/12/03 01:35:37;;;;;;;26.70;14.23;;;;;;;-1.28;85.06;97740.64;1812709;79;21357;-70
2020/12/03 01:38:04;;;;;;;24.57;14.03;;;;;;;-1.26;84.88;97759.72;1828840;78;21001;-70
2020/12/03 01:40:31;;;;;;;29.52;15.03;;;;;;;-1.30;84.35;97736.47;1812724;79;21064;-71
2020/12/03 01:42:59;;;;;;;27.53;14.73;;;;;;;-1.34;84.56;97738.70;1828857;78;21045;-70
2020/12/03 01:45:47;;;;;;;29.27;16.53;;;;;;;-1.35;84.69;97739.14;1812651;79;20965;-71
2020/12/03 01:48:37;;;;;;;27.23;15.30;;;;;;;-1.36;84.42;97723.44;1828870;78;21490;-70
2020/12/03 01:51:12;;;;;;;28.93;16.17;;;;;;;-1.34;84.62;97734.88;1812711;79;21134;-70
2020/12/03 01:53:41;;;;;;;26.07;15.60;;;;;;;-1.33;84.58;97722.06;1828794;78;20953;-70
2020/12/03 01:56:23;;;;;;;31.35;15.70;;;;;;;-1.32;84.69;97725.48;1812734;79;21360;-70
2020/12/03 01:58:51;;;;;;;30.57;16.77;;;;;;;-1.34;84.57;97722.11;1828622;78;20887;-70
2020/12/03 02:01:18;;;;;;;32.05;19.10;;;;;;;-1.37;84.81;97715.39;1812736;79;21017;-70
2020/12/03 02:03:47;;;;;;;29.20;16.67;;;;;;;-1.35;85.00;97708.97;1828955;78;21965;-70
2020/12/03 02:06:23;;;;;;;31.70;15.57;;;;;;;-1.35;85.03;97707.25;1812643;79;21385;-70
2020/12/03 02:08:50;;;;;;;32.50;19.77;;;;;;;-1.32;85.12;97709.73;1828820;78;20886;-70
2020/12/03 02:11:19;;;;;;;33.23;16.97;;;;;;;-1.32;85.18;97711.44;1812689;79;20914;-70
2020/12/03 02:13:59;;;;;;;35.28;21.57;;;;;;;-1.33;85.28;97715.68;1828898;78;20961;-70
2020/12/03 02:16:29;;;;;;;31.57;20.37;;;;;;;-1.34;85.29;97714.02;1812793;79;21973;-70
2020/12/03 02:18:56;;;;;;;31.30;18.10;;;;;;;-1.34;85.29;97722.11;1832609;78;20972;-71
2020/12/03 02:21:24;;;;;;;28.63;17.10;;;;;;;-1.31;85.27;97724.59;1815916;79;21299;-70
2020/12/03 02:23:51;;;;;;;29.30;16.00;;;;;;;-1.30;85.14;97718.61;1837653;78;21036;-70
2020/12/03 02:26:19;;;;;;;28.17;17.27;;;;;;;-1.30;85.03;97722.44;1815819;79;21002;-70
2020/12/03 02:28:47;;;;;;;28.70;16.65;;;;;;;-1.28;85.06;97723.22;1837685;78;20964;-70
2020/12/03 02:31:15;;;;;;;29.93;17.23;;;;;;;-1.26;84.92;97729.10;1815777;79;21040;-70
2020/12/03 02:33:42;;;;;;;30.10;16.77;;;;;;;-1.29;84.82;97724.94;1781627;78;20913;-70
2020/12/03 02:36:14;;;;;;;29.15;17.20;;;;;;;-1.31;85.00;97724.16;1837688;78;20914;-70
2020/12/03 02:38:42;;;;;;;33.13;17.25;;;;;;;-1.28;85.20;97721.94;1837676;78;21209;-70
2020/12/03 02:41:09;;;;;;;33.20;17.33;;;;;;;-1.28;85.11;97720.22;1837582;78;21027;-70
2020/12/03 02:43:36;;;;;;;28.43;15.80;;;;;;;-1.30;84.99;97726.26;1837600;78;21108;-70
2020/12/03 02:46:04;;;;;;;33.13;18.77;;;;;;;-1.33;84.75;97723.78;1837624;78;20925;-70
2020/12/03 02:48:31;;;;;;;33.37;15.97;;;;;;;-1.34;84.68;97729.77;1837666;78;21048;-70
2020/12/03 02:50:59;;;;;;;30.10;16.87;;;;;;;-1.38;84.48;97725.66;1815832;79;20922;-70
2020/12/03 02:53:26;;;;;;;31.30;16.10;;;;;;;-1.45;84.38;97739.02;1837589;78;21770;-70
2020/12/03 02:55:53;;;;;;;33.37;14.60;;;;;;;-1.51;84.57;97741.73;1837638;78;21003;-70
2020/12/03 02:58:20;;;;;;;31.70;16.23;;;;;;;-1.56;84.74;97734.23;1815806;79;20906;-70
2020/12/03 03:00:49;;;;;;;32.40;17.50;;;;;;;-1.60;84.90;97721.16;1837567;78;20938;-70
2020/12/03 03:03:17;;;;;;;30.23;16.23;;;;;;;-1.62;85.04;97725.47;1837659;78;21123;-70
2020/12/03 03:05:44;;;;;;;33.53;19.73;;;;;;;-1.61;85.19;97721.20;1815834;79;21711;-69
2020/12/03 03:08:12;;;;;;;31.10;17.20;;;;;;;-1.64;85.22;97720.86;1837524;78;20937;-69
2020/12/03 03:10:39;;;;;;;32.10;17.47;;;;;;;-1.65;85.43;97715.81;1815832;79;20875;-69
2020/12/03 03:13:06;;;;;;;31.93;16.83;;;;;;;-1.66;85.55;97718.77;1837543;78;21383;-70
2020/12/03 03:15:34;;;;;;;36.03;19.73;;;;;;;-1.67;85.74;97714.55;1815862;79;21005;-69
2020/12/03 03:18:01;;;;;;;34.37;20.10;;;;;;;-1.68;85.78;97726.08;1837535;78;21328;-70
2020/12/03 03:20:28;;;;;;;31.97;17.65;;;;;;;-1.68;85.75;97725.63;1818666;79;21061;-69
2020/12/03 03:22:55;;;;;;;32.28;18.57;;;;;;;-1.68;85.86;97723.09;1837620;78;20989;-69
2020/12/03 03:25:22;;;;;;;32.97;18.50;;;;;;;-1.65;85.92;97714.53;1818951;79;21444;-70
2020/12/03 03:27:50;;;;;;;32.07;17.73;;;;;;;-1.63;85.92;97720.42;1837568;78;20910;-69
2020/12/03 03:30:17;;;;;;;33.25;17.45;;;;;;;-1.65;85.93;97718.36;1818894;79;21260;-69
2020/12/03 03:32:44;;;;;;;38.30;18.35;;;;;;;-1.64;86.04;97724.69;1837463;78;21376;-69
2020/12/03 03:35:15;;;;;;;37.70;18.82;;;;;;;-1.64;86.21;97726.41;1819019;79;21045;-69
2020/12/03 03:37:43;;;;;;;34.38;17.25;;;;;;;-1.62;86.13;97731.84;1837569;78;20870;-69
2020/12/03 03:40:10;;;;;;;35.10;18.85;;;;;;;-1.64;86.11;97731.06;1819153;79;20917;-69
2020/12/03 03:42:37;;;;;;;34.93;18.10;;;;;;;-1.64;86.16;97728.95;1837695;78;22083;-69
2020/12/03 03:45:05;;;;;;;32.50;17.30;;;;;;;-1.62;86.14;97722.92;1837657;78;21040;-69
2020/12/03 03:47:32;;;;;;;35.83;18.90;;;;;;;-1.63;85.93;97726.35;1819165;79;20981;-69
2020/12/03 03:49:59;;;;;;;36.25;15.78;;;;;;;-1.63;85.78;97734.45;1837777;78;21020;-68
2020/12/03 03:52:26;;;;;;;34.10;18.17;;;;;;;-1.66;85.82;97733.23;1837742;78;20998;-69
2020/12/03 03:54:54;;;;;;;34.63;17.87;;;;;;;-1.67;85.96;97734.12;1819229;79;22135;-70
2020/12/03 03:57:21;;;;;;;32.87;16.33;;;;;;;-1.66;86.04;97728.14;1837594;78;21288;-71
2020/12/03 03:59:48;;;;;;;35.78;18.05;;;;;;;-1.65;86.19;97738.32;1819201;79;21099;-71
2020/12/03 04:02:21;;;;;;;40.83;19.45;;;;;;;-1.65;86.23;97734.50;1837700;78;20910;-71
2020/12/03 04:04:48;;;;;;;38.02;19.73;;;;;;;-1.63;86.28;97731.45;1819365;79;21347;-71
2020/12/03 04:07:16;;;;;;;46.20;23.98;;;;;;;-1.62;86.34;97724.64;1837727;78;21199;-71
2020/12/03 04:09:44;;;;;;;35.87;20.20;;;;;;;-1.59;86.40;97726.64;1819127;79;20902;-71
2020/12/03 04:12:11;;;;;;;39.47;20.83;;;;;;;-1.58;86.24;97724.48;1807566;78;20894;-71
2020/12/03 04:14:38;;;;;;;39.23;20.13;;;;;;;-1.56;86.19;97721.48;1837716;78;21067;-71
2020/12/03 04:17:06;;;;;;;36.17;19.83;;;;;;;-1.53;86.08;97718.83;1819175;79;21092;-71
2020/12/03 04:19:33;;;;;;;35.30;18.80;;;;;;;-1.51;85.75;97706.86;1838006;78;21149;-71
2020/12/03 04:22:00;;;;;;;37.77;20.60;;;;;;;-1.51;85.72;97697.93;1805694;79;20913;-71
2020/12/03 04:24:27;;;;;;;39.23;21.63;;;;;;;-1.47;85.74;97699.97;1826312;78;21372;-71
2020/12/03 04:26:54;;;;;;;41.67;23.77;;;;;;;-1.46;85.81;97697.37;1805628;79;21406;-70
2020/12/03 04:29:21;;;;;;;42.75;24.00;;;;;;;-1.44;85.71;97693.49;1826391;78;21048;-69
2020/12/03 04:31:49;;;;;;;45.37;26.43;;;;;;;-1.45;85.73;97694.38;1805685;79;21022;-69
2020/12/03 04:34:16;;;;;;;42.10;24.87;;;;;;;-1.46;85.75;97694.81;1826305;78;20978;-70
2020/12/03 04:36:43;;;;;;;53.37;31.93;;;;;;;-1.48;86.02;97687.66;1805669;79;20900;-70
2020/12/03 04:39:11;;;;;;;53.20;33.90;;;;;;;-1.48;86.19;97690.20;1826189;78;20930;-70
2020/12/03 04:41:38;;;;;;;35.60;20.43;;;;;;;-1.45;86.35;97686.72;1805693;79;20885;-70
2020/12/03 04:44:27;;;;;;;42.08;24.95;;;;;;;-1.44;86.40;97691.77;1826300;78;21400;-70
2020/12/03 04:47:35;;;;;;;41.18;25.00;;;;;;;-1.47;86.37;97675.73;1805673;79;21136;-70
2020/12/03 04:50:27;;;;;;;44.95;23.10;;;;;;;-1.54;86.47;97669.97;1826321;78;21400;-71
2020/12/03 04:53:21;;;;;;;38.67;20.20;;;;;;;-1.59;86.86;97667.16;1805670;79;21019;-69
2020/12/03 04:55:56;;;;;;;43.33;22.30;;;;;;;-1.66;87.32;97658.01;1826379;78;20961;-70
2020/12/03 04:58:59;;;;;;;36.93;22.23;;;;;;;-1.69;87.56;97662.77;1805649;79;21875;-70
2020/12/03 05:01:49;;;;;;;36.30;19.90;;;;;;;-1.70;87.81;97664.92;1826433;78;21092;-69
2020/12/03 05:04:30;;;;;;;40.47;19.40;;;;;;;-1.74;87.87;97669.70;1805253;79;21000;-70
2020/12/03 05:07:04;;;;;;;36.43;18.50;;;;;;;-1.77;87.95;97672.35;1826351;78;20981;-70
2020/12/03 05:10:00;;;;;;;38.30;19.17;;;;;;;-1.78;87.83;97668.97;1805766;79;21295;-70
2020/12/03 05:12:31;;;;;;;33.23;17.03;;;;;;;-1.79;87.98;97663.92;1826359;78;22510;-71
2020/12/03 05:15:06;;;;;;;30.10;15.93;;;;;;;-1.78;88.10;97654.11;1778480;79;21110;-71
2020/12/03 05:17:52;;;;;;;33.67;16.37;;;;;;;-1.81;88.07;97670.34;1801492;78;20920;-71
2020/12/03 05:20:30;;;;;;;34.27;17.00;;;;;;;-1.82;88.03;97670.36;1814082;78;21293;-71
2020/12/03 05:23:23;;;;;;;34.37;17.77;;;;;;;-1.80;87.97;97683.92;1823402;78;21099;-71
2020/12/03 05:25:52;;;;;;;37.55;20.68;;;;;;;-1.77;87.86;97675.73;1819311;79;21951;-71
2020/12/03 05:28:33;;;;;;;34.07;18.80;;;;;;;-1.73;87.90;97663.31;1837624;78;21053;-71
2020/12/03 05:31:17;;;;;;;32.87;17.27;;;;;;;-1.71;87.97;97674.73;1819064;79;20914;-71
2020/12/03 05:33:44;;;;;;;28.67;16.93;;;;;;;-1.70;87.78;97674.69;1837621;78;21505;-71
2020/12/03 05:36:25;;;;;;;29.67;15.63;;;;;;;-1.72;87.66;97669.24;1837745;78;20921;-71
2020/12/03 05:38:52;;;;;;;30.10;14.90;;;;;;;-1.72;87.64;97673.91;1836732;78;21249;-71
2020/12/03 05:41:20;;;;;;;31.40;16.03;;;;;;;-1.71;87.57;97679.39;1837519;78;21316;-71
2020/12/03 05:43:48;;;;;;;29.03;17.53;;;;;;;-1.71;87.67;97688.76;1837625;78;21366;-69
2020/12/03 05:46:17;;;;;;;33.70;14.70;;;;;;;-1.70;87.72;97675.13;1819052;79;21195;-70
2020/12/03 05:48:58;;;;;;;27.73;15.75;;;;;;;-1.68;87.73;97682.73;1807904;78;21138;-70
2020/12/03 05:51:30;;;;;;;31.03;16.97;;;;;;;-1.68;87.85;97676.35;1826103;78;21212;-71
2020/12/03 05:54:04;;;;;;;31.13;16.23;;;;;;;-1.68;87.99;97673.36;1803834;79;21175;-74
2020/12/03 05:56:31;;;;;;;26.83;14.77;;;;;;;-1.66;88.19;97675.42;1815205;78;21166;-79
2020/12/03 05:59:19;;;;;;;29.47;16.17;;;;;;;-1.59;88.21;97679.91;1861735;76;21099;-78
2020/12/03 06:02:09;;;;;;;30.07;17.23;;;;;;;-1.55;88.15;97679.78;1812027;78;21387;-79
2020/12/03 06:04:49;;;;;;;33.20;19.03;;;;;;;-1.51;88.14;97678.80;1806651;78;21637;-75
2020/12/03 06:07:48;;;;;;;30.67;15.60;;;;;;;-1.49;88.07;97677.47;1813255;78;21111;-77
2020/12/03 06:10:59;;;;;;;26.50;14.00;;;;;;;-1.45;87.97;97677.35;1832164;77;21002;-74
2020/12/03 06:13:44;;;;;;;26.33;15.53;;;;;;;-1.39;87.82;97694.20;1808731;78;21471;-76
2020/12/03 06:16:29;;;;;;;35.30;20.23;;;;;;;-1.39;87.41;97675.06;1816113;78;21248;-76
2020/12/03 06:19:04;;;;;;;28.33;16.57;;;;;;;-1.40;87.40;97678.95;1815921;78;21271;-80
2020/12/03 06:21:55;;;;;;;33.77;17.60;;;;;;;-1.39;87.60;97681.45;1822168;78;21176;-74
2020/12/03 06:24:36;;;;;;;34.47;20.73;;;;;;;-1.40;87.66;97692.53;1813795;78;20966;-72
2020/12/03 06:27:35;;;;;;;32.30;17.00;;;;;;;-1.37;87.64;97681.39;1815023;78;21148;-77
2020/12/03 06:30:11;;;;;;;36.83;19.70;;;;;;;-1.36;87.67;97680.51;1804412;78;21123;-78
2020/12/03 06:32:52;;;;;;;28.67;16.63;;;;;;;-1.34;87.66;97682.13;1810571;78;21617;-74
2020/12/03 06:35:47;;;;;;;28.60;16.93;;;;;;;-1.32;87.67;97685.48;1800351;79;21156;-76
2020/12/03 06:38:22;;;;;;;29.63;16.80;;;;;;;-1.30;87.66;97682.88;1811667;78;21188;-75
2020/12/03 06:41:01;;;;;;;26.63;15.50;;;;;;;-1.30;87.54;97677.34;1822724;78;21132;-78
2020/12/03 06:43:36;;;;;;;31.60;15.80;;;;;;;-1.26;87.14;97677.63;1825902;77;21535;-76
2020/12/03 06:46:25;;;;;;;32.90;18.40;;;;;;;-1.26;87.12;97678.06;1794659;78;21710;-78
2020/12/03 06:49:41;;;;;;;27.87;16.93;;;;;;;-1.29;87.31;97692.20;1793500;78;21052;-79
2020/12/03 06:52:40;;;;;;;26.83;14.37;;;;;;;-1.27;87.58;97684.89;1778117;79;21596;-77
2020/12/03 06:55:25;;;;;;;28.27;15.10;;;;;;;-1.22;87.32;97686.03;1731990;81;21182;-74
2020/12/03 06:58:09;;;;;;;27.80;15.20;;;;;;;-1.20;87.23;97672.78;1827039;77;22841;-78
2020/12/03 07:00:51;;;;;;;28.70;15.83;;;;;;;-1.27;87.16;97673.84;1802418;77;21007;-76
2020/12/03 07:03:49;;;;;;;32.57;15.30;;;;;;;-1.26;87.27;97673.80;1793746;78;21821;-77
2020/12/03 07:06:58;;;;;;;26.60;14.97;;;;;;;-1.24;87.51;97673.73;1812252;77;21062;-77
2020/12/03 07:10:03;;;;;;;29.60;16.20;;;;;;;-1.21;87.56;97666.84;1802637;78;21013;-74
2020/12/03 07:12:53;;;;;;;25.77;14.10;;;;;;;-1.23;87.39;97663.52;1810299;78;21004;-77
2020/12/03 07:16:12;;;;;;;29.03;16.93;;;;;;;-1.25;87.31;97661.42;1761312;78;21454;-72
2020/12/03 07:19:19;;;;;;;30.03;15.40;;;;;;;-1.25;87.22;97660.15;1808350;78;21373;-73
2020/12/03 07:22:11;;;;;;;33.63;17.70;;;;;;;-1.24;87.13;97673.73;1804976;78;21426;-73
2020/12/03 07:24:42;;;;;;;39.40;18.67;;;;;;;-1.26;87.22;97671.24;1789480;78;21000;-74
2020/12/03 07:27:35;;;;;;;29.43;17.30;;;;;;;-1.26;87.30;97656.38;1804980;78;21175;-75
2020/12/03 07:30:20;;;;;;;35.45;19.07;;;;;;;-1.22;87.48;97652.86;1800247;78;21423;-73
2020/12/03 07:33:01;;;;;;;35.77;19.73;;;;;;;-1.18;87.46;97649.31;1810710;78;21375;-74
2020/12/03 07:36:04;;;;;;;34.53;18.33;;;;;;;-1.14;87.28;97650.46;1806871;78;21206;-78
2020/12/03 07:38:54;;;;;;;32.93;17.83;;;;;;;-1.10;87.03;97655.02;1798966;77;22486;-74
2020/12/03 07:41:23;;;;;;;33.30;16.93;;;;;;;-1.20;87.00;97653.64;1803771;78;20992;-74
2020/12/03 07:44:16;;;;;;;33.60;17.30;;;;;;;-1.24;86.96;97643.12;1785009;78;22039;-74
2020/12/03 07:46:43;;;;;;;30.90;16.85;;;;;;;-1.30;87.09;97645.89;1779068;78;28286;-76
2020/12/03 07:49:11;;;;;;;39.87;20.17;;;;;;;-1.33;87.19;97651.06;1781406;78;21062;-75
2020/12/03 07:51:38;;;;;;;34.33;19.40;;;;;;;-1.35;87.37;97657.49;1767320;79;20999;-73
2020/12/03 07:54:22;;;;;;;29.70;16.03;;;;;;;-1.36;87.25;97644.79;1785653;78;21152;-73
2020/12/03 07:56:51;;;;;;;27.83;14.70;;;;;;;-1.35;86.97;97655.38;1781133;78;22434;-75
2020/12/03 07:59:29;;;;;;;30.77;18.20;;;;;;;-1.35;86.92;97652.39;1802007;78;20973;-75
2020/12/03 08:01:59;;;;;;;25.97;14.85;;;;;;;-1.35;86.84;97643.46;1786623;78;20914;-74
2020/12/03 08:04:35;;;;;;;28.60;16.17;;;;;;;-1.32;86.87;97640.00;1782361;78;21169;-74
2020/12/03 08:07:08;;;;;;;39.00;21.10;;;;;;;-1.31;86.46;97640.39;1788159;78;21058;-77
2020/12/03 08:09:39;;;;;;;29.60;17.43;;;;;;;-1.31;86.45;97629.74;1789418;78;21191;-76
2020/12/03 08:12:19;;;;;;;32.07;18.83;;;;;;;-1.29;86.24;97638.17;1786877;78;20983;-76
2020/12/03 08:14:55;;;;;;;36.63;20.80;;;;;;;-1.31;86.29;97634.84;1777742;79;21027;-74
2020/12/03 08:17:32;;;;;;;28.70;16.47;;;;;;;-1.30;86.48;97634.41;1791510;79;21185;-75
2020/12/03 08:20:11;;;;;;;38.27;22.43;;;;;;;-1.25;86.67;97641.45;1776009;78;21150;-76
2020/12/03 08:22:48;;;;;;;29.80;18.13;;;;;;;-1.22;86.82;97644.77;1780361;78;21378;-76
2020/12/03 08:25:22;;;;;;;31.10;17.13;;;;;;;-1.21;86.47;97643.05;1804888;78;20959;-76
2020/12/03 08:28:01;;;;;;;30.17;17.87;;;;;;;-1.23;86.37;97637.16;1845742;77;21176;-76
2020/12/03 08:30:41;;;;;;;31.87;17.37;;;;;;;-1.25;86.44;97638.91;1814365;77;20977;-76
2020/12/03 08:33:17;;;;;;;26.97;14.90;;;;;;;-1.27;86.22;97628.75;1823718;77;21448;-78
2020/12/03 08:35:57;;;;;;;34.38;21.00;;;;;;;-1.31;86.15;97619.98;1821028;77;21177;-78
2020/12/03 08:38:36;;;;;;;34.47;19.53;;;;;;;-1.35;86.48;97640.08;1827176;77;20945;-77
2020/12/03 08:41:06;;;;;;;34.30;20.00;;;;;;;-1.37;86.78;97645.67;1832585;77;21161;-76
2020/12/03 08:43:48;;;;;;;41.90;24.57;;;;;;;-1.38;86.80;97637.63;1809091;77;22404;-82
2020/12/03 08:46:23;;;;;;;34.87;18.47;;;;;;;-1.38;86.98;97621.88;1807164;77;21212;-74
2020/12/03 08:48:51;;;;;;;26.50;14.43;;;;;;;-1.35;86.85;97626.05;1829776;77;21392;-76
2020/12/03 08:51:23;;;;;;;29.98;15.70;;;;;;;-1.31;86.66;97630.19;1824637;77;21392;-77
2020/12/03 08:53:53;;;;;;;32.33;19.47;;;;;;;-1.29;86.31;97625.86;1834917;76;21449;-75
2020/12/03 08:56:37;;;;;;;36.30;22.13;;;;;;;-1.29;86.45;97617.77;1821215;77;21407;-74
2020/12/03 08:59:11;;;;;;;43.33;23.20;;;;;;;-1.24;86.57;97622.70;1840129;77;21129;-73
2020/12/03 09:02:08;;;;;;;34.00;19.23;;;;;;;-1.17;86.67;97634.39;1824294;77;21924;-73
2020/12/03 09:04:46;;;;;;;30.10;18.03;;;;;;;-1.09;86.66;97634.98;1783778;77;21137;-74
2020/12/03 09:07:14;;;;;;;36.17;22.58;;;;;;;-1.04;86.15;97624.64;1830188;77;21170;-76
2020/12/03 09:09:43;;;;;;;41.37;24.00;;;;;;;-1.06;85.96;97611.10;1828883;77;21125;-74
2020/12/03 09:12:11;;;;;;;36.27;22.17;;;;;;;-1.07;86.09;97606.44;1825816;76;21292;-75
2020/12/03 09:14:41;;;;;;;27.95;15.03;;;;;;;-1.08;86.16;97608.57;1818501;77;21420;-73
2020/12/03 09:17:09;;;;;;;29.67;15.17;;;;;;;-1.12;86.22;97603.63;1799912;77;21212;-72
2020/12/03 09:19:38;;;;;;;28.10;15.17;;;;;;;-1.16;86.30;97605.02;1838867;77;21118;-72
2020/12/03 09:22:07;;;;;;;26.75;15.08;;;;;;;-1.14;86.26;97610.91;1823871;77;21050;-73
2020/12/03 09:24:35;;;;;;;24.23;13.73;;;;;;;-1.15;85.85;97613.51;1803881;77;21165;-73
2020/12/03 09:27:04;;;;;;;27.80;15.23;;;;;;;-1.17;86.08;97602.49;1802699;77;21386;-73
2020/12/03 09:29:31;;;;;;;37.27;22.67;;;;;;;-1.16;86.01;97602.88;1830247;77;21185;-75
2020/12/03 09:32:07;;;;;;;43.50;24.43;;;;;;;-1.15;86.13;97596.48;1819632;77;21129;-73
2020/12/03 09:34:35;;;;;;;29.77;17.83;;;;;;;-1.11;85.85;97595.92;1827859;76;21219;-75
2020/12/03 09:37:02;;;;;;;25.67;14.73;;;;;;;-1.14;85.59;97573.89;1815941;77;21106;-73
2020/12/03 09:39:32;;;;;;;25.33;14.47;;;;;;;-1.17;85.61;97589.73;1791606;78;22391;-73
2020/12/03 09:42:01;;;;;;;31.60;16.20;;;;;;;-1.17;85.73;97584.63;1835415;77;21443;-75
2020/12/03 09:44:31;;;;;;;28.53;15.07;;;;;;;-1.20;85.50;97587.29;1829243;77;21069;-72
2020/12/03 09:47:00;;;;;;;28.33;16.53;;;;;;;-1.25;85.49;97577.66;1815050;76;21075;-72
2020/12/03 09:49:28;;;;;;;40.15;25.05;;;;;;;-1.28;85.76;97582.42;1775596;77;21138;-75
2020/12/03 09:52:03;;;;;;;47.33;30.68;;;;;;;-1.26;85.98;97574.72;1819973;76;22215;-74
2020/12/03 09:54:30;;;;;;;28.30;16.37;;;;;;;-1.22;86.34;97578.86;1808603;77;27626;-77
2020/12/03 09:56:59;;;;;;;34.90;18.37;;;;;;;-1.14;86.29;97581.55;1828736;76;21184;-75
2020/12/03 09:59:27;;;;;;;28.23;15.23;;;;;;;-1.07;86.04;97581.36;1775934;77;21135;-76
2020/12/03 10:02:16;;;;;;;24.10;13.95;;;;;;;-1.04;85.59;97577.41;1818602;77;21141;-72
2020/12/03 10:05:13;;;;;;;30.50;15.35;;;;;;;-1.06;85.47;97586.85;1818462;77;21474;-75
2020/12/03 10:07:58;;;;;;;27.10;15.97;;;;;;;-1.09;85.34;97553.30;1814527;77;21184;-75
2020/12/03 10:10:49;;;;;;;34.87;20.57;;;;;;;-1.11;85.50;97558.08;1838541;77;21146;-73
2020/12/03 10:13:27;;;;;;;30.75;17.48;;;;;;;-1.12;85.70;97553.42;1827814;76;20936;-75
2020/12/03 10:16:04;;;;;;;29.87;16.70;;;;;;;-1.08;85.63;97549.03;1832633;76;21075;-76
2020/12/03 10:18:52;;;;;;;23.80;13.53;;;;;;;-1.09;85.56;97552.47;1822932;76;21786;-79
2020/12/03 10:21:25;;;;;;;32.07;19.20;;;;;;;-1.13;85.53;97547.93;1820534;77;21007;-82
2020/12/03 10:27:21;;;;;;;30.00;16.57;;;;;;;-1.18;86.19;97540.85;1828419;77;21007;-75
2020/12/03 10:30:07;;;;;;;27.63;15.53;;;;;;;-1.17;86.40;97536.14;1815707;77;21118;-78
2020/12/03 10:32:46;;;;;;;35.13;18.80;;;;;;;-1.12;86.49;97544.48;1802827;77;21351;-78
2020/12/03 10:35:14;;;;;;;25.03;14.97;;;;;;;-1.10;86.20;97535.50;1819094;77;21173;-79
2020/12/03 10:37:53;;;;;;;25.73;14.83;;;;;;;-1.11;86.23;97528.28;1795104;78;21574;-77
2020/12/03 10:40:20;;;;;;;32.03;18.57;;;;;;;-1.11;86.02;97523.63;1774943;78;21134;-83
2020/12/03 10:43:01;;;;;;;24.43;13.13;;;;;;;-1.10;85.96;97533.78;1823180;77;21168;-77
2020/12/03 10:45:41;;;;;;;23.10;12.87;;;;;;;-1.09;85.62;97517.57;1839183;77;21370;-76
2020/12/03 10:48:14;;;;;;;26.33;15.40;;;;;;;-1.06;85.16;97516.21;1809757;77;20924;-79
2020/12/03 10:50:50;;;;;;;27.58;14.85;;;;;;;-1.08;85.07;97509.03;1824557;77;21471;-79
2020/12/03 10:53:28;;;;;;;34.83;15.40;;;;;;;-1.05;85.30;97509.39;1827939;76;21133;-84
2020/12/03 10:56:07;;;;;;;26.00;13.00;;;;;;;-1.03;85.22;97512.71;1833006;77;21137;-77
2020/12/03 10:58:55;;;;;;;24.70;13.60;;;;;;;-1.02;85.29;97510.10;1841356;77;21015;-77
2020/12/03 11:01:24;;;;;;;20.92;12.63;;;;;;;-0.99;85.13;97511.30;1834330;77;21472;-77
2020/12/03 11:03:56;;;;;;;27.10;14.90;;;;;;;-0.98;84.82;97508.30;1830542;77;21430;-76
2020/12/03 11:06:28;;;;;;;25.90;15.45;;;;;;;-0.97;84.98;97498.02;1830213;77;21138;-78
2020/12/03 11:08:57;;;;;;;31.65;14.30;;;;;;;-0.99;84.90;97497.70;1831861;77;21062;-74
2020/12/03 11:11:24;;;;;;;24.12;13.25;;;;;;;-1.04;84.71;97474.87;1819313;77;21124;-77
2020/12/03 11:13:52;;;;;;;28.63;15.70;;;;;;;-1.06;84.58;97458.78;1832873;76;21115;-77
2020/12/03 11:16:23;;;;;;;29.90;17.90;;;;;;;-1.08;84.79;97477.13;1837748;77;21125;-77
2020/12/03 11:18:52;;;;;;;32.00;19.25;;;;;;;-1.10;85.25;97472.52;1824042;77;21125;-79
2020/12/03 11:21:23;;;;;;;39.33;23.70;;;;;;;-1.10;85.58;97478.90;1804818;77;21026;-79
2020/12/03 11:24:15;;;;;;;33.60;21.60;;;;;;;-1.10;85.94;97477.63;1766314;79;21141;-77
2020/12/03 11:26:43;;;;;;;29.03;17.23;;;;;;;-1.14;85.71;97473.52;1792282;78;21562;-80
2020/12/03 11:29:16;;;;;;;35.47;20.30;;;;;;;-1.16;85.91;97467.62;1794246;79;21439;-79
2020/12/03 11:31:44;;;;;;;37.83;22.37;;;;;;;-1.15;86.35;97473.97;1829378;77;21150;-79
2020/12/03 11:34:11;;;;;;;28.33;16.47;;;;;;;-1.16;86.31;97462.52;1768456;81;21148;-83
2020/12/03 11:36:43;;;;;;;32.33;19.37;;;;;;;-1.18;86.01;97461.73;1768602;79;21208;-77
2020/12/03 11:39:10;;;;;;;32.33;19.33;;;;;;;-1.14;86.04;97465.87;1794501;78;21131;-79
2020/12/03 11:41:51;;;;;;;24.20;12.77;;;;;;;-1.11;85.44;97445.78;1787216;78;21631;-80
2020/12/03 11:44:34;;;;;;;27.87;16.20;;;;;;;-1.10;84.85;97460.20;1791581;79;21037;-79
2020/12/03 11:49:43;;;;;;;29.23;18.57;;;;;;;-1.02;85.01;97447.56;1828072;76;22240;-78
2020/12/03 11:52:17;;;;;;;24.23;15.03;;;;;;;-0.96;84.90;97457.56;1822835;77;21600;-77
2020/12/03 11:54:46;;;;;;;34.00;21.07;;;;;;;-0.92;84.78;97464.21;1831818;77;20974;-77
2020/12/03 11:57:16;;;;;;;38.37;23.53;;;;;;;-0.90;84.74;97462.91;1834046;77;21150;-77